Time;durP1;ratioP1;P1;durP2;ratioP2;P2;SDS_P1;SDS_P2;PMS_P1;PMS_P2;Temp;Humidity;BMP_temperature;BMP_pressure;BME280_temperature;BME280_humidity;BME280_pressure;Samples;Min_cycle;Max_cycle;Signal;HPM_P1;HPM_P2
2022/03/21 00:01:10;;;;;;;24.63;16.97;;;5.10;69.70;;;;;;5057538;28;20234;-70
2022/03/21 00:03:38;;;;;;;22.67;17.67;;;5.10;69.60;;;;;;5065489;28;20696;-70
2022/03/21 00:06:06;;;;;;;20.60;15.47;;;5.10;69.60;;;;;;5071476;28;20268;-70
2022/03/21 00:08:33;;;;;;;22.57;15.83;;;5.10;69.50;;;;;;5059563;28;20225;-70
2022/03/21 00:11:01;;;;;;;25.33;16.80;;;5.10;69.40;;;;;;5067929;28;20211;-70
2022/03/21 00:13:28;;;;;;;23.80;17.07;;;5.10;69.60;;;;;;5072656;28;20203;-70
2022/03/21 00:15:56;;;;;;;25.30;17.23;;;5.10;69.80;;;;;;5066106;28;20264;-70
2022/03/21 00:18:25;;;;;;;24.73;17.03;;;5.00;69.80;;;;;;5058379;28;20217;-70
2022/03/21 00:20:54;;;;;;;27.23;18.13;;;5.00;69.70;;;;;;5072570;28;20699;-70
2022/03/21 00:23:22;;;;;;;30.07;16.67;;;5.00;69.40;;;;;;5061222;28;20208;-70
2022/03/21 00:25:49;;;;;;;23.83;17.57;;;4.90;69.00;;;;;;5066813;28;20599;-70
2022/03/21 00:28:17;;;;;;;27.17;17.03;;;4.90;68.70;;;;;;5068205;28;20242;-70
2022/03/21 00:30:45;;;;;;;25.00;17.07;;;4.90;68.40;;;;;;5056544;28;20211;-70
2022/03/21 00:33:13;;;;;;;26.23;17.00;;;4.90;68.30;;;;;;5081948;28;20196;-70
2022/03/21 00:35:42;;;;;;;24.33;16.77;;;4.90;68.10;;;;;;5067469;28;20215;-70
2022/03/21 00:38:14;;;;;;;28.33;17.03;;;4.90;67.90;;;;;;5069340;28;20216;-70
2022/03/21 00:40:45;;;;;;;29.97;17.77;;;5.00;67.80;;;;;;5060306;28;20224;-70
2022/03/21 00:43:16;;;;;;;25.40;17.53;;;5.00;67.70;;;;;;5071030;28;20291;-70
2022/03/21 00:45:46;;;;;;;29.50;17.50;;;5.00;67.60;;;;;;5065890;28;20209;-70
2022/03/21 00:48:13;;;;;;;23.80;16.43;;;5.00;67.50;;;;;;5058031;28;20214;-70
2022/03/21 00:50:40;;;;;;;23.13;15.80;;;5.00;67.30;;;;;;5060724;28;20212;-70
2022/03/21 00:53:07;;;;;;;26.97;18.23;;;5.00;66.80;;;;;;5068256;28;20224;-70
2022/03/21 00:55:35;;;;;;;27.53;18.43;;;4.90;66.70;;;;;;5071890;28;20589;-70
2022/03/21 00:58:02;;;;;;;28.87;17.80;;;4.90;67.00;;;;;;5061526;28;20206;-70
2022/03/21 01:00:31;;;;;;;28.57;18.83;;;4.80;67.30;;;;;;5060025;28;20194;-70
2022/03/21 01:02:59;;;;;;;28.97;20.33;;;4.80;67.40;;;;;;5062203;28;20577;-70
2022/03/21 01:05:28;;;;;;;21.10;16.80;;;4.80;67.40;;;;;;5068171;28;20346;-70
2022/03/21 01:07:56;;;;;;;32.57;19.60;;;4.70;67.50;;;;;;5059508;28;20275;-70
2022/03/21 01:10:25;;;;;;;32.80;21.17;;;4.70;67.50;;;;;;5066716;28;20219;-70
2022/03/21 01:12:52;;;;;;;29.43;19.47;;;4.70;67.70;;;;;;5065509;28;20204;-70
2022/03/21 01:15:22;;;;;;;26.63;19.80;;;4.60;67.90;;;;;;5062650;28;20221;-70
2022/03/21 01:17:50;;;;;;;31.37;19.80;;;4.60;67.90;;;;;;5071962;28;20200;-70
2022/03/21 01:20:18;;;;;;;25.80;18.87;;;4.60;68.00;;;;;;5068402;28;20196;-70
2022/03/21 01:22:46;;;;;;;27.83;18.70;;;4.50;68.20;;;;;;5060586;28;20200;-70
2022/03/21 01:25:13;;;;;;;32.47;20.83;;;4.50;68.30;;;;;;5071842;28;20217;-70
2022/03/21 01:27:41;;;;;;;26.90;18.67;;;4.40;68.50;;;;;;5063402;28;20210;-70
2022/03/21 01:30:12;;;;;;;29.07;18.23;;;4.40;68.70;;;;;;5070285;28;20218;-70
2022/03/21 01:32:42;;;;;;;26.80;18.77;;;4.30;68.50;;;;;;5062034;28;20211;-70
2022/03/21 01:35:12;;;;;;;29.40;18.87;;;4.30;69.00;;;;;;5058809;28;20310;-70
2022/03/21 01:37:40;;;;;;;27.93;17.93;;;4.20;69.30;;;;;;5058969;28;20213;-70
2022/03/21 01:40:08;;;;;;;26.93;17.57;;;4.20;70.20;;;;;;5067445;28;20197;-70
2022/03/21 01:42:36;;;;;;;25.37;18.73;;;4.20;69.00;;;;;;5068586;28;20211;-70
2022/03/21 01:45:05;;;;;;;27.53;19.13;;;4.10;68.30;;;;;;5061646;28;20212;-70
2022/03/21 01:47:33;;;;;;;29.00;19.17;;;4.10;69.00;;;;;;5070184;28;20204;-70
2022/03/21 01:50:00;;;;;;;27.93;18.43;;;4.00;68.20;;;;;;5060767;28;20554;-70
2022/03/21 01:52:28;;;;;;;33.10;19.87;;;4.00;68.80;;;;;;5059764;28;20207;-70
2022/03/21 01:57:44;;;;;;;28.43;20.03;;;3.90;70.00;;;;;;5061607;28;20524;-70
2022/03/21 02:00:12;;;;;;;29.57;20.13;;;3.90;70.50;;;;;;5067026;28;20204;-70
2022/03/21 02:02:39;;;;;;;26.80;19.57;;;3.90;70.50;;;;;;5060862;28;20715;-70
2022/03/21 02:05:07;;;;;;;31.00;19.90;;;3.90;70.60;;;;;;5066639;28;20213;-70
2022/03/21 02:07:35;;;;;;;32.50;19.37;;;3.90;70.90;;;;;;5067223;28;20242;-70
2022/03/21 02:10:04;;;;;;;26.57;18.57;;;3.90;70.80;;;;;;5059532;28;20209;-71
2022/03/21 02:12:34;;;;;;;30.00;21.10;;;3.90;70.50;;;;;;5055754;28;20276;-71
2022/03/21 02:15:03;;;;;;;28.40;20.57;;;3.90;70.60;;;;;;5064945;28;20225;-70
2022/03/21 02:17:32;;;;;;;28.00;19.87;;;3.90;70.40;;;;;;5071910;28;20203;-70
2022/03/21 02:20:02;;;;;;;30.13;20.27;;;3.90;70.40;;;;;;5064215;28;20266;-70
2022/03/21 02:22:47;;;;;;;34.03;21.07;;;3.90;70.20;;;;;;5056543;28;20208;-70
2022/03/21 02:25:28;;;;;;;26.57;20.03;;;3.90;70.00;;;;;;5062247;28;20207;-70
2022/03/21 02:27:58;;;;;;;22.50;18.00;;;3.90;69.70;;;;;;5058313;28;20211;-70
2022/03/21 02:30:28;;;;;;;27.03;19.90;;;3.90;69.70;;;;;;5061556;28;20211;-70
2022/03/21 02:32:56;;;;;;;29.30;18.13;;;3.90;69.10;;;;;;5076487;28;20546;-70
2022/03/21 02:35:24;;;;;;;28.33;19.20;;;3.90;68.40;;;;;;5062474;28;20379;-70
2022/03/21 02:37:54;;;;;;;30.30;18.97;;;3.90;68.70;;;;;;5064392;28;20241;-70
2022/03/21 02:40:21;;;;;;;27.13;17.70;;;3.90;69.00;;;;;;5065279;28;20210;-70
2022/03/21 02:42:49;;;;;;;27.97;18.33;;;3.90;69.00;;;;;;5074008;28;20212;-70
2022/03/21 02:45:16;;;;;;;37.17;20.63;;;3.90;69.10;;;;;;5068452;28;20211;-70
2022/03/21 02:47:43;;;;;;;32.37;20.30;;;3.90;68.70;;;;;;5074951;28;20539;-70
2022/03/21 02:50:18;;;;;;;28.97;19.13;;;3.90;68.60;;;;;;5074684;28;20199;-70
2022/03/21 02:52:47;;;;;;;27.10;17.13;;;3.90;68.90;;;;;;5073836;28;20224;-70
2022/03/21 02:55:14;;;;;;;29.13;18.37;;;3.90;69.00;;;;;;5070338;28;20238;-70
2022/03/21 02:57:41;;;;;;;31.37;18.77;;;3.90;69.10;;;;;;5066799;28;20197;-70
2022/03/21 03:00:09;;;;;;;24.10;18.63;;;3.80;68.90;;;;;;5061104;28;20208;-70
2022/03/21 03:02:36;;;;;;;28.73;18.93;;;3.80;69.20;;;;;;5064549;28;20207;-70
2022/03/21 03:05:03;;;;;;;29.07;19.80;;;3.70;69.30;;;;;;5054376;28;20278;-70
2022/03/21 03:07:30;;;;;;;29.87;19.63;;;3.70;69.60;;;;;;5066395;28;20246;-70
2022/03/21 03:09:57;;;;;;;30.40;18.93;;;3.70;69.90;;;;;;5066941;28;20217;-70
2022/03/21 03:12:24;;;;;;;25.53;19.20;;;3.70;70.20;;;;;;5060688;28;20216;-70
2022/03/21 03:14:51;;;;;;;28.67;18.63;;;3.60;70.30;;;;;;5057884;28;20556;-70
2022/03/21 03:17:18;;;;;;;26.40;18.90;;;3.60;70.60;;;;;;5060823;28;20199;-70
2022/03/21 03:19:45;;;;;;;30.10;20.10;;;3.60;70.90;;;;;;5063041;28;20210;-70
2022/03/21 03:22:14;;;;;;;30.97;19.83;;;3.60;71.00;;;;;;5071594;28;20216;-70
2022/03/21 03:24:42;;;;;;;28.03;20.47;;;3.50;71.10;;;;;;5061230;28;20273;-70
2022/03/21 03:27:09;;;;;;;30.00;20.87;;;3.50;71.20;;;;;;5060701;28;20203;-70
2022/03/21 03:29:36;;;;;;;30.67;20.57;;;3.50;71.20;;;;;;5060687;28;20208;-69
2022/03/21 03:32:04;;;;;;;33.03;20.43;;;3.40;71.40;;;;;;5066922;28;20567;-69
2022/03/21 03:34:33;;;;;;;34.83;20.80;;;3.40;71.00;;;;;;5073216;28;20235;-69
2022/03/21 03:37:00;;;;;;;26.40;19.77;;;3.30;70.90;;;;;;5067065;28;20227;-69
2022/03/21 03:39:29;;;;;;;32.10;19.93;;;3.30;71.50;;;;;;5071909;28;20206;-69
2022/03/21 03:41:56;;;;;;;29.17;20.17;;;3.30;71.40;;;;;;5071259;28;20228;-69
2022/03/21 03:44:25;;;;;;;30.40;20.97;;;3.30;71.70;;;;;;5067947;28;20194;-69
2022/03/21 03:46:52;;;;;;;30.63;22.00;;;3.30;72.10;;;;;;5068457;28;20594;-69
2022/03/21 03:49:19;;;;;;;32.40;21.70;;;3.30;72.30;;;;;;5063886;28;20643;-69
2022/03/21 03:51:46;;;;;;;30.53;20.83;;;3.30;72.50;;;;;;5072587;28;20196;-69
2022/03/21 03:54:13;;;;;;;31.30;21.10;;;3.20;72.60;;;;;;5070035;28;20200;-69
2022/03/21 03:56:40;;;;;;;36.30;23.60;;;3.20;72.80;;;;;;5062248;28;20638;-69
2022/03/21 03:59:07;;;;;;;33.93;22.07;;;3.20;72.80;;;;;;5060746;28;20204;-69
2022/03/21 04:01:34;;;;;;;37.03;22.23;;;3.20;73.10;;;;;;5061050;28;20638;-69
2022/03/21 04:04:01;;;;;;;35.60;23.93;;;3.20;73.70;;;;;;5060321;28;20288;-69
2022/03/21 04:06:28;;;;;;;34.40;22.43;;;3.20;74.30;;;;;;5064146;28;20250;-69
2022/03/21 04:08:55;;;;;;;35.27;24.00;;;3.20;74.60;;;;;;5069178;28;20215;-69
2022/03/21 04:11:23;;;;;;;39.50;23.20;;;3.10;74.60;;;;;;5056810;28;20234;-69
2022/03/21 04:13:50;;;;;;;36.30;22.77;;;3.00;74.80;;;;;;5066405;28;20490;-69
2022/03/21 04:16:17;;;;;;;38.93;25.73;;;3.00;75.90;;;;;;5064466;28;20230;-69
2022/03/21 04:18:44;;;;;;;37.40;25.47;;;3.00;76.70;;;;;;5062434;28;20523;-69
2022/03/21 04:21:28;;;;;;;33.60;25.03;;;3.00;77.20;;;;;;5061175;28;20210;-69
2022/03/21 04:23:59;;;;;;;32.47;24.17;;;3.00;77.40;;;;;;5054559;28;20214;-69
2022/03/21 04:26:26;;;;;;;32.30;22.57;;;3.00;77.80;;;;;;5058205;28;20334;-69
2022/03/21 04:28:55;;;;;;;36.97;22.27;;;3.00;77.60;;;;;;5058031;28;20195;-69
2022/03/21 04:31:23;;;;;;;39.97;24.97;;;3.00;77.30;;;;;;5054104;28;20578;-69
2022/03/21 04:33:50;;;;;;;29.60;22.03;;;3.00;77.00;;;;;;5058293;28;20298;-69
2022/03/21 04:36:19;;;;;;;32.33;23.57;;;3.00;77.00;;;;;;5070127;28;20224;-69
2022/03/21 04:38:46;;;;;;;33.40;24.80;;;2.90;76.80;;;;;;5062415;28;20214;-69
2022/03/21 04:41:13;;;;;;;32.13;22.43;;;2.90;76.70;;;;;;5059067;28;20210;-69
2022/03/21 04:43:40;;;;;;;35.40;24.20;;;2.90;76.80;;;;;;5064285;28;20552;-69
2022/03/21 04:46:07;;;;;;;30.67;22.03;;;2.90;76.60;;;;;;5053782;28;20211;-69
2022/03/21 04:48:34;;;;;;;33.97;21.50;;;2.80;76.70;;;;;;5073053;28;20230;-69
2022/03/21 04:51:01;;;;;;;30.20;21.53;;;2.80;77.00;;;;;;5073874;28;20221;-69
2022/03/21 04:53:28;;;;;;;32.03;22.47;;;2.70;76.90;;;;;;5062679;28;20211;-69
2022/03/21 04:55:55;;;;;;;37.77;22.83;;;2.70;76.80;;;;;;5062256;28;20694;-69
2022/03/21 04:58:22;;;;;;;34.40;22.57;;;2.70;76.90;;;;;;5053897;28;20208;-69
2022/03/21 05:00:49;;;;;;;37.50;22.50;;;2.70;77.00;;;;;;5065078;28;20210;-69
2022/03/21 05:03:16;;;;;;;30.03;22.70;;;2.60;77.20;;;;;;5059826;28;20241;-69
2022/03/21 05:05:44;;;;;;;34.30;23.97;;;2.60;77.40;;;;;;5037626;28;20253;-69
2022/03/21 05:08:11;;;;;;;34.53;22.80;;;2.60;77.50;;;;;;5033828;28;20232;-69
2022/03/21 05:10:38;;;;;;;41.50;23.90;;;2.60;77.60;;;;;;5058353;28;20203;-69
2022/03/21 05:13:06;;;;;;;138.67;30.37;;;2.60;77.50;;;;;;5065897;28;20207;-69
2022/03/21 05:15:35;;;;;;;76.77;27.23;;;2.60;77.60;;;;;;5071473;28;20223;-69
2022/03/21 05:18:04;;;;;;;44.30;23.47;;;2.50;77.80;;;;;;5060049;28;20203;-69
2022/03/21 05:20:31;;;;;;;46.27;23.93;;;2.50;78.10;;;;;;5060657;28;20521;-69
2022/03/21 05:31:15;;;;;;;37.70;25.80;;;2.50;78.50;;;;;;5074743;28;20213;-69
2022/03/21 05:36:27;;;;;;;32.77;23.03;;;2.50;78.80;;;;;;5064331;28;20228;-69
2022/03/21 05:38:56;;;;;;;39.77;23.23;;;2.60;78.70;;;;;;5066082;28;20497;-69
2022/03/21 05:41:23;;;;;;;38.57;25.57;;;2.60;78.60;;;;;;5061184;28;20202;-69
2022/03/21 05:43:50;;;;;;;38.47;24.60;;;2.70;78.70;;;;;;5069285;28;20624;-69
2022/03/21 05:46:18;;;;;;;38.93;25.13;;;2.80;78.60;;;;;;5071348;28;20208;-69
2022/03/21 05:48:54;;;;;;;35.67;22.33;;;2.90;78.30;;;;;;5061498;28;20217;-69
2022/03/21 05:51:27;;;;;;;42.37;24.23;;;3.00;78.10;;;;;;5064395;28;20203;-69
2022/03/21 05:53:56;;;;;;;40.17;24.10;;;3.10;77.30;;;;;;5051035;28;20298;-70
2022/03/21 05:56:25;;;;;;;38.60;25.70;;;3.30;76.70;;;;;;5071213;28;20281;-70
2022/03/21 05:58:53;;;;;;;35.97;24.97;;;3.60;75.90;;;;;;5065268;28;20249;-70
2022/03/21 06:01:24;;;;;;;44.33;26.33;;;3.70;75.00;;;;;;5067814;28;20290;-70
2022/03/21 06:03:55;;;;;;;40.00;26.20;;;3.90;74.40;;;;;;5069946;28;20576;-70
2022/03/21 06:06:23;;;;;;;35.53;23.87;;;4.10;74.00;;;;;;5080906;28;20246;-70
2022/03/21 06:08:51;;;;;;;36.63;22.73;;;4.20;73.90;;;;;;5075158;28;20207;-70
2022/03/21 06:11:19;;;;;;;35.20;23.13;;;4.40;73.30;;;;;;5058251;28;20207;-70
2022/03/21 06:13:47;;;;;;;33.60;23.83;;;4.60;72.80;;;;;;5074276;28;20583;-70
2022/03/21 06:16:15;;;;;;;38.00;25.07;;;4.90;72.00;;;;;;5071814;28;20219;-70
2022/03/21 06:18:42;;;;;;;40.33;24.63;;;5.10;70.80;;;;;;5070521;28;20283;-70
2022/03/21 06:21:11;;;;;;;40.87;26.20;;;5.40;70.10;;;;;;5062982;28;20882;-70
2022/03/21 06:23:38;;;;;;;49.03;25.93;;;5.70;69.10;;;;;;5066026;28;20200;-70
2022/03/21 06:26:07;;;;;;;36.43;25.63;;;5.90;68.30;;;;;;5070076;28;20546;-70
2022/03/21 06:28:35;;;;;;;30.80;23.33;;;6.10;67.70;;;;;;5071296;28;20207;-70
2022/03/21 06:31:03;;;;;;;34.67;23.03;;;6.20;67.10;;;;;;5060606;28;20597;-70
2022/03/21 06:33:31;;;;;;;37.83;25.93;;;6.40;66.70;;;;;;5059091;28;20210;-70
2022/03/21 06:36:00;;;;;;;35.70;24.73;;;6.50;66.60;;;;;;5064776;28;20224;-70
2022/03/21 06:38:27;;;;;;;35.57;25.57;;;6.50;66.50;;;;;;5058849;28;20292;-70
2022/03/21 06:40:58;;;;;;;33.63;23.30;;;6.60;66.60;;;;;;5075126;28;20202;-70
2022/03/21 06:43:27;;;;;;;39.23;26.23;;;6.80;66.00;;;;;;5072714;28;20531;-70
2022/03/21 06:45:55;;;;;;;37.13;24.67;;;6.90;65.60;;;;;;5064359;28;20199;-70
2022/03/21 06:48:23;;;;;;;35.30;24.33;;;7.00;65.60;;;;;;5064342;28;20201;-70
2022/03/21 06:50:52;;;;;;;38.10;24.73;;;7.20;65.40;;;;;;5073664;28;20334;-70
2022/03/21 06:53:19;;;;;;;38.07;25.13;;;7.20;65.10;;;;;;5065047;28;20209;-70
2022/03/21 06:55:46;;;;;;;39.10;26.73;;;7.30;64.90;;;;;;5063756;28;20729;-69
2022/03/21 06:58:14;;;;;;;35.67;23.33;;;7.20;65.10;;;;;;5066714;28;20207;-69
2022/03/21 07:00:43;;;;;;;34.57;24.60;;;7.20;65.70;;;;;;5074432;28;20271;-69
2022/03/21 07:03:15;;;;;;;37.67;25.20;;;7.20;66.10;;;;;;5073698;28;20656;-69
2022/03/21 07:05:43;;;;;;;33.40;24.40;;;7.10;66.60;;;;;;5065042;28;20347;-69
2022/03/21 07:08:10;;;;;;;35.77;24.03;;;7.10;67.00;;;;;;5058807;28;20659;-69
2022/03/21 07:10:40;;;;;;;34.87;23.70;;;7.10;67.40;;;;;;5064002;28;20221;-69
2022/03/21 07:13:08;;;;;;;36.20;26.00;;;7.20;67.70;;;;;;5064109;28;20221;-69
2022/03/21 07:15:39;;;;;;;32.47;23.97;;;7.20;67.60;;;;;;5073826;28;20281;-68
2022/03/21 07:18:08;;;;;;;33.23;23.40;;;7.30;67.30;;;;;;5072357;28;20205;-69
2022/03/21 07:20:37;;;;;;;33.83;22.27;;;7.40;67.00;;;;;;5064353;28;20205;-69
2022/03/21 07:23:04;;;;;;;34.93;22.53;;;7.50;67.00;;;;;;5063595;28;20205;-69
2022/03/21 07:25:31;;;;;;;43.10;22.20;;;7.70;66.90;;;;;;5058926;28;20204;-73
2022/03/21 07:27:58;;;;;;;32.20;20.40;;;7.80;66.50;;;;;;5061729;28;20207;-70
2022/03/21 07:30:26;;;;;;;26.00;19.37;;;8.00;65.90;;;;;;5069361;28;20200;-70
2022/03/21 07:32:54;;;;;;;33.87;20.60;;;8.10;65.10;;;;;;5073514;28;20630;-70
2022/03/21 07:35:21;;;;;;;24.90;17.80;;;8.30;64.70;;;;;;5063371;28;20252;-70
2022/03/21 07:37:52;;;;;;;26.93;17.57;;;8.50;64.20;;;;;;5060047;28;20198;-70
2022/03/21 07:40:20;;;;;;;28.00;16.90;;;8.60;63.50;;;;;;5069098;28;20219;-70
2022/03/21 07:42:48;;;;;;;27.17;17.43;;;8.80;62.30;;;;;;5058478;28;20214;-70
2022/03/21 07:48:03;;;;;;;24.30;14.77;;;9.10;60.50;;;;;;5068560;28;20316;-70
2022/03/21 07:50:31;;;;;;;23.63;14.90;;;9.30;59.40;;;;;;5049921;28;20264;-70
2022/03/21 07:53:00;;;;;;;23.07;14.07;;;9.40;58.60;;;;;;5066478;28;20225;-70
2022/03/21 07:55:27;;;;;;;23.80;12.73;;;9.60;57.40;;;;;;5056208;28;20502;-70
2022/03/21 07:57:55;;;;;;;21.07;14.40;;;9.60;55.20;;;;;;5067596;28;20237;-70
2022/03/21 08:00:23;;;;;;;19.67;12.83;;;9.70;55.10;;;;;;5061783;28;20217;-70
2022/03/21 08:02:51;;;;;;;22.77;13.80;;;9.80;54.80;;;;;;5070645;28;20220;-70
2022/03/21 08:05:19;;;;;;;21.87;12.53;;;9.90;54.70;;;;;;5063001;28;20642;-70
2022/03/21 08:07:46;;;;;;;18.53;12.80;;;10.10;54.20;;;;;;5071425;28;20238;-70
2022/03/21 08:10:15;;;;;;;18.33;13.57;;;10.20;53.20;;;;;;5065626;28;20206;-70
2022/03/21 08:12:43;;;;;;;19.60;12.73;;;10.30;52.50;;;;;;5074390;28;20592;-70
2022/03/21 08:15:12;;;;;;;20.50;14.00;;;10.40;51.80;;;;;;5070189;28;20657;-70
2022/03/21 08:18:03;;;;;;;18.87;13.20;;;10.50;52.10;;;;;;5059089;28;20231;-70
2022/03/21 08:20:35;;;;;;;23.37;13.60;;;10.50;52.00;;;;;;5061124;28;20541;-70
2022/03/21 08:23:08;;;;;;;18.20;12.27;;;10.60;51.40;;;;;;5062820;28;20230;-70
2022/03/21 08:25:36;;;;;;;24.93;14.03;;;10.60;51.50;;;;;;5071824;28;20235;-70
2022/03/21 08:28:05;;;;;;;22.37;12.40;;;10.60;51.60;;;;;;5063846;28;20215;-70
2022/03/21 08:30:35;;;;;;;16.53;12.60;;;10.70;51.80;;;;;;5056936;28;20634;-70
2022/03/21 08:33:06;;;;;;;23.20;12.77;;;10.80;50.90;;;;;;5062642;28;20611;-70
2022/03/21 08:35:37;;;;;;;15.17;11.57;;;10.80;50.20;;;;;;5071050;28;20221;-70
2022/03/21 08:38:07;;;;;;;22.40;11.80;;;10.90;49.70;;;;;;5071631;28;20287;-70
2022/03/21 08:40:36;;;;;;;16.90;12.07;;;11.00;50.00;;;;;;5060949;28;20228;-70
2022/03/21 08:43:04;;;;;;;17.43;12.30;;;11.10;49.90;;;;;;5071962;28;20237;-70
2022/03/21 08:45:32;;;;;;;20.77;13.17;;;11.30;49.20;;;;;;5065485;28;20227;-70
2022/03/21 08:47:59;;;;;;;15.87;12.10;;;11.50;48.50;;;;;;5069315;28;20200;-70
2022/03/21 08:50:27;;;;;;;21.27;11.73;;;11.60;48.40;;;;;;5070062;28;20238;-70
2022/03/21 08:52:57;;;;;;;16.67;11.93;;;11.90;48.60;;;;;;5060829;28;20232;-70
2022/03/21 08:55:24;;;;;;;15.50;12.63;;;12.10;48.00;;;;;;5053800;28;20212;-70
2022/03/21 08:57:52;;;;;;;22.20;12.13;;;12.30;47.60;;;;;;5064236;28;20235;-70
2022/03/21 09:00:19;;;;;;;20.57;12.40;;;12.50;47.20;;;;;;5063921;28;20215;-70
2022/03/21 09:02:48;;;;;;;15.60;11.70;;;12.70;46.90;;;;;;5068191;28;20214;-70
2022/03/21 09:05:17;;;;;;;19.83;12.23;;;12.80;45.80;;;;;;5056160;28;20202;-70
2022/03/21 09:07:44;;;;;;;20.10;11.57;;;12.90;44.30;;;;;;5068110;28;20281;-70
2022/03/21 09:10:13;;;;;;;16.47;11.40;;;12.90;44.50;;;;;;5062386;28;20212;-70
2022/03/21 09:12:43;;;;;;;16.60;11.03;;;12.80;45.40;;;;;;5056404;28;20209;-70
2022/03/21 09:15:11;;;;;;;17.17;11.17;;;12.90;46.00;;;;;;5072427;28;20223;-70
2022/03/21 09:17:39;;;;;;;16.73;10.87;;;13.10;44.80;;;;;;5064488;28;20567;-70
2022/03/21 09:20:06;;;;;;;12.00;9.97;;;13.20;44.90;;;;;;5058056;28;20281;-70
2022/03/21 09:22:34;;;;;;;14.97;10.67;;;13.30;44.80;;;;;;5066260;28;20209;-70
2022/03/21 09:25:01;;;;;;;12.23;9.77;;;13.50;44.50;;;;;;5071277;28;20635;-70
2022/03/21 09:27:28;;;;;;;16.70;9.13;;;13.70;44.10;;;;;;5064260;28;20542;-70
2022/03/21 09:29:56;;;;;;;13.07;9.67;;;13.80;43.60;;;;;;5056378;28;20560;-70
2022/03/21 09:32:24;;;;;;;12.23;9.23;;;13.90;43.20;;;;;;5072027;28;20647;-70
2022/03/21 09:34:51;;;;;;;10.23;8.30;;;14.00;43.10;;;;;;5067928;28;20211;-70
2022/03/21 09:37:18;;;;;;;11.40;8.57;;;14.10;43.20;;;;;;5070328;28;20224;-70
2022/03/21 09:39:45;;;;;;;15.83;9.67;;;14.20;42.60;;;;;;5064621;28;20200;-70
2022/03/21 09:42:14;;;;;;;10.03;8.27;;;14.30;42.00;;;;;;5060447;28;20204;-70
2022/03/21 09:44:41;;;;;;;9.93;7.80;;;14.30;42.20;;;;;;5076103;28;20205;-70
2022/03/21 09:50:00;;;;;;;9.93;8.00;;;14.50;41.20;;;;;;5063673;28;20215;-70
2022/03/21 09:52:29;;;;;;;9.27;7.37;;;14.50;39.30;;;;;;5062410;28;20208;-70
2022/03/21 09:54:57;;;;;;;12.83;6.80;;;14.50;39.00;;;;;;5090617;28;20227;-70
2022/03/21 09:57:26;;;;;;;10.90;7.20;;;14.50;38.80;;;;;;5044442;28;20254;-70
2022/03/21 09:59:55;;;;;;;9.93;7.27;;;14.50;39.10;;;;;;5067834;28;20519;-70
2022/03/21 10:02:22;;;;;;;10.50;7.73;;;14.70;39.80;;;;;;5077257;28;20221;-70
2022/03/21 10:04:50;;;;;;;10.83;7.80;;;14.90;39.30;;;;;;5072559;28;20637;-70
2022/03/21 10:07:26;;;;;;;14.33;8.43;;;15.00;38.50;;;;;;5075029;28;20244;-70
2022/03/21 10:10:12;;;;;;;10.77;7.50;;;15.20;38.30;;;;;;5064857;28;20209;-70
2022/03/21 10:12:40;;;;;;;11.40;6.77;;;15.40;37.80;;;;;;5060790;28;20274;-70
2022/03/21 10:15:09;;;;;;;8.90;7.33;;;15.50;37.40;;;;;;5064338;28;20763;-70
2022/03/21 10:17:36;;;;;;;8.83;7.50;;;15.60;35.80;;;;;;5064230;28;20242;-70
2022/03/21 10:20:07;;;;;;;9.87;7.10;;;15.60;35.90;;;;;;5064452;28;20194;-70
2022/03/21 10:22:37;;;;;;;8.37;7.20;;;15.60;36.20;;;;;;5070139;28;20229;-70
2022/03/21 10:25:07;;;;;;;10.37;7.27;;;15.70;36.50;;;;;;5073200;28;20591;-70
2022/03/21 10:27:39;;;;;;;8.30;6.63;;;15.80;36.20;;;;;;5064165;28;20201;-70
2022/03/21 10:30:09;;;;;;;14.13;7.43;;;15.90;35.70;;;;;;5057135;28;20211;-70
2022/03/21 10:32:43;;;;;;;10.27;6.97;;;16.00;33.40;;;;;;5058727;28;20311;-70
2022/03/21 10:35:12;;;;;;;11.33;7.93;;;15.90;31.70;;;;;;5072330;28;20223;-70
2022/03/21 10:37:58;;;;;;;10.83;8.10;;;15.80;32.70;;;;;;5071253;28;20245;-70
2022/03/21 10:40:40;;;;;;;10.67;7.27;;;15.70;32.50;;;;;;5069805;28;20211;-70
2022/03/21 10:43:11;;;;;;;17.40;8.27;;;15.70;31.70;;;;;;5068220;28;20891;-70
2022/03/21 10:45:42;;;;;;;11.67;8.03;;;15.60;32.10;;;;;;5062292;28;20206;-70
2022/03/21 10:48:26;;;;;;;9.10;7.23;;;15.40;31.10;;;;;;5067136;28;20210;-70
2022/03/21 10:50:55;;;;;;;10.57;7.77;;;15.20;32.30;;;;;;5066146;28;20208;-70
2022/03/21 10:53:26;;;;;;;9.53;7.53;;;15.10;32.40;;;;;;5074997;28;20201;-70
2022/03/21 10:55:53;;;;;;;10.43;8.57;;;15.10;31.90;;;;;;5069254;28;20207;-70
2022/03/21 10:58:33;;;;;;;10.60;7.27;;;15.10;32.90;;;;;;5071927;28;20296;-70
2022/03/21 11:01:24;;;;;;;13.00;8.00;;;15.00;31.30;;;;;;5058462;28;20256;-70
2022/03/21 11:03:57;;;;;;;10.17;7.93;;;15.00;31.40;;;;;;5061871;28;20284;-70
2022/03/21 11:06:25;;;;;;;9.00;7.13;;;15.00;31.80;;;;;;5056975;28;20723;-70
2022/03/21 11:08:52;;;;;;;10.03;7.67;;;15.10;31.70;;;;;;5066151;28;20224;-70
2022/03/21 11:11:19;;;;;;;8.90;7.37;;;15.20;32.10;;;;;;5053475;28;20276;-70
2022/03/21 11:13:48;;;;;;;13.83;8.60;;;15.40;31.90;;;;;;5053504;28;20234;-70
2022/03/21 11:16:19;;;;;;;10.60;8.07;;;15.40;31.10;;;;;;5057871;28;20205;-70
2022/03/21 11:18:48;;;;;;;15.67;7.27;;;15.50;31.10;;;;;;5058980;28;20561;-70
2022/03/21 11:21:19;;;;;;;10.20;7.23;;;15.50;30.90;;;;;;5071160;28;20214;-70
2022/03/21 11:23:48;;;;;;;11.80;8.27;;;15.50;32.00;;;;;;5068588;28;20210;-70
2022/03/21 11:26:22;;;;;;;13.13;7.77;;;15.60;30.80;;;;;;5066578;28;20607;-70
2022/03/21 11:29:06;;;;;;;11.17;7.57;;;15.70;30.50;;;;;;5022980;28;20618;-70
2022/03/21 11:31:56;;;;;;;9.20;7.73;;;15.70;30.50;;;;;;5067809;28;20632;-70
2022/03/21 11:34:46;;;;;;;11.63;7.47;;;15.70;29.70;;;;;;5067040;28;20220;-70
2022/03/21 11:37:29;;;;;;;8.90;7.97;;;15.60;30.10;;;;;;5062582;28;20212;-70
2022/03/21 11:40:26;;;;;;;10.30;7.17;;;15.50;29.60;;;;;;5070341;28;20232;-70
2022/03/21 11:43:18;;;;;;;9.83;8.13;;;15.40;30.30;;;;;;5059119;28;20202;-70
2022/03/21 11:45:54;;;;;;;10.47;7.93;;;15.40;29.40;;;;;;5058176;28;20208;-70
2022/03/21 11:48:24;;;;;;;11.30;7.37;;;15.20;29.20;;;;;;5061890;28;20208;-70
2022/03/21 11:50:54;;;;;;;11.50;7.57;;;15.10;29.40;;;;;;5069068;28;20213;-70
2022/03/21 11:53:33;;;;;;;8.40;7.43;;;15.20;30.20;;;;;;5072769;28;20204;-70
2022/03/21 11:56:01;;;;;;;10.37;8.03;;;15.30;29.80;;;;;;5064032;28;20213;-70
2022/03/21 11:58:37;;;;;;;9.57;8.50;;;15.30;30.30;;;;;;5057891;28;20254;-70
2022/03/21 12:01:20;;;;;;;11.13;7.90;;;15.30;31.00;;;;;;5067682;28;20208;-70
2022/03/21 12:03:48;;;;;;;10.30;7.77;;;15.50;30.90;;;;;;5057063;28;20209;-70
2022/03/21 12:06:30;;;;;;;10.00;7.03;;;15.70;31.30;;;;;;5059526;28;20237;-70
2022/03/21 12:08:59;;;;;;;9.83;7.27;;;15.90;29.40;;;;;;5085539;28;20585;-70
2022/03/21 12:11:39;;;;;;;13.00;7.63;;;16.00;29.40;;;;;;5067804;28;20228;-71
2022/03/21 12:14:25;;;;;;;9.63;7.47;;;16.00;28.90;;;;;;5062535;28;20567;-71
2022/03/21 12:17:01;;;;;;;8.60;7.33;;;16.00;29.20;;;;;;5059256;28;20225;-71
2022/03/21 12:22:29;;;;;;;9.50;7.23;;;15.80;28.70;;;;;;5057548;28;20201;-71
2022/03/21 12:24:58;;;;;;;9.97;6.87;;;15.80;28.90;;;;;;5066328;28;20660;-70
2022/03/21 12:27:32;;;;;;;10.27;7.40;;;15.70;28.30;;;;;;5059564;28;20299;-71
2022/03/21 12:30:27;;;;;;;9.47;7.33;;;15.60;29.40;;;;;;5069899;28;20210;-71
2022/03/21 12:33:10;;;;;;;9.57;7.63;;;15.60;29.80;;;;;;5058504;28;20198;-71
2022/03/21 12:35:42;;;;;;;8.80;7.73;;;15.70;29.20;;;;;;5064351;28;20209;-71
2022/03/21 12:38:22;;;;;;;10.23;7.33;;;15.70;28.00;;;;;;5061553;28;20269;-71
2022/03/21 12:40:58;;;;;;;9.57;7.47;;;15.80;28.30;;;;;;5057027;28;20205;-71
2022/03/21 12:43:30;;;;;;;9.43;6.90;;;15.80;27.80;;;;;;5064303;28;20232;-71
2022/03/21 12:46:07;;;;;;;10.07;7.60;;;15.80;28.60;;;;;;5071956;28;20208;-71
2022/03/21 12:48:42;;;;;;;9.23;7.47;;;15.80;29.80;;;;;;5065119;28;20210;-71
2022/03/21 12:51:13;;;;;;;10.07;6.97;;;15.80;28.90;;;;;;5058336;28;20245;-71
2022/03/21 12:53:44;;;;;;;12.23;8.40;;;15.80;28.50;;;;;;5059186;28;20206;-71
2022/03/21 12:56:19;;;;;;;10.07;8.00;;;15.80;28.30;;;;;;5070978;28;20672;-71
2022/03/21 12:58:47;;;;;;;9.57;7.33;;;15.80;28.20;;;;;;5054121;28;20235;-71
2022/03/21 13:01:17;;;;;;;9.43;7.90;;;15.80;29.50;;;;;;5060881;28;20201;-70
2022/03/21 13:03:45;;;;;;;8.03;7.20;;;15.80;29.20;;;;;;5073051;28;20535;-70
2022/03/21 13:11:35;;;;;;;9.70;8.07;;;15.50;28.90;;;;;;5066852;28;20210;-70
2022/03/21 13:14:06;;;;;;;12.50;8.50;;;15.50;28.50;;;;;;5058399;28;20540;-69
2022/03/21 13:16:45;;;;;;;13.97;8.60;;;15.50;28.80;;;;;;5064713;28;20275;-71
2022/03/21 13:19:20;;;;;;;9.30;7.50;;;15.50;28.50;;;;;;5064037;28;20206;-70